createdAt,value
2022-07-29T00:02:44.205Z,22.44
2022-07-29T00:05:45.998Z,22.52
2022-07-29T00:08:47.990Z,22.52
2022-07-29T00:11:49.881Z,22.29
2022-07-29T00:14:51.921Z,22.28
2022-07-29T00:17:53.633Z,22.18
2022-07-29T00:20:55.642Z,22.23
2022-07-29T00:23:57.393Z,21.91
2022-07-29T00:26:59.123Z,21.67
2022-07-29T00:30:00.898Z,21.63
2022-07-29T00:33:05.003Z,21.82
2022-07-29T00:36:09.872Z,21.75
2022-07-29T00:39:11.558Z,21.68
2022-07-29T00:42:13.351Z,21.62
2022-07-29T00:45:15.944Z,21.48
2022-07-29T00:48:17.627Z,21.64
2022-07-29T00:51:19.346Z,21.38
2022-07-29T00:54:21.168Z,21.37
2022-07-29T00:57:22.971Z,21.43
2022-07-29T01:00:26.891Z,21.53
2022-07-29T01:03:28.635Z,21.41
2022-07-29T01:06:30.676Z,21.39
2022-07-29T01:09:40.875Z,21.31
2022-07-29T01:12:51.199Z,21.27
2022-07-29T01:15:57.595Z,21.15
2022-07-29T01:19:13.994Z,21.12
2022-07-29T01:22:37.622Z,21.26
2022-07-29T01:26:16.682Z,21.19
2022-07-29T01:29:36.122Z,21.27
2022-07-29T01:32:42.065Z,21.12
2022-07-29T01:35:45.915Z,21.11
2022-07-29T01:39:09.514Z,21.01
2022-07-29T01:42:14.247Z,20.92
2022-07-29T01:45:20.023Z,20.89
2022-07-29T01:48:27.068Z,20.71
2022-07-29T01:51:37.000Z,20.69
2022-07-29T01:54:40.297Z,20.57
2022-07-29T01:57:46.637Z,20.54
2022-07-29T02:00:50.173Z,20.58
2022-07-29T02:03:54.283Z,20.48
2022-07-29T02:07:00.015Z,20.41
2022-07-29T02:10:05.875Z,20.53
2022-07-29T02:13:08.213Z,20.60
2022-07-29T02:16:10.952Z,20.58
2022-07-29T02:19:15.584Z,20.48
2022-07-29T02:22:19.507Z,20.43
2022-07-29T02:25:23.388Z,20.38
2022-07-29T02:28:28.521Z,20.36
2022-07-29T02:31:35.282Z,20.22
2022-07-29T02:34:39.463Z,20.12
2022-07-29T02:37:43.402Z,20.04
2022-07-29T02:40:45.849Z,20.00
2022-07-29T02:43:56.242Z,19.93
2022-07-29T02:47:22.580Z,20.06
2022-07-29T02:50:38.823Z,20.20
2022-07-29T02:53:43.085Z,20.21
2022-07-29T02:56:46.918Z,19.99
2022-07-29T02:59:52.595Z,19.86
2022-07-29T03:02:57.119Z,19.79
2022-07-29T03:06:02.111Z,19.75
2022-07-29T03:09:06.707Z,19.78
2022-07-29T03:12:13.318Z,19.85
2022-07-29T03:15:15.650Z,19.86
2022-07-29T03:18:18.233Z,19.87
2022-07-29T03:21:20.051Z,19.83
2022-07-29T03:24:31.530Z,19.88
2022-07-29T03:27:33.230Z,19.77
2022-07-29T03:30:35.027Z,19.60
2022-07-29T03:33:36.740Z,19.57
2022-07-29T03:36:38.422Z,19.62
2022-07-29T03:39:42.467Z,19.47
2022-07-29T03:42:46.626Z,19.41
2022-07-29T03:45:54.671Z,19.42
2022-07-29T03:49:01.154Z,19.33
2022-07-29T03:52:03.099Z,19.26
2022-07-29T03:55:06.014Z,19.33
2022-07-29T03:58:09.245Z,19.25
2022-07-29T04:01:12.578Z,19.33
2022-07-29T04:04:14.743Z,19.47
2022-07-29T04:07:16.772Z,19.49
2022-07-29T04:10:30.182Z,19.46
2022-07-29T04:13:34.209Z,19.45
2022-07-29T04:16:35.908Z,19.61
2022-07-29T04:19:37.669Z,19.59
2022-07-29T04:22:39.342Z,19.51
2022-07-29T04:25:42.092Z,19.47
2022-07-29T04:28:43.905Z,19.36
2022-07-29T04:31:45.827Z,19.43
2022-07-29T04:34:47.673Z,19.18
2022-07-29T04:37:49.647Z,19.18
2022-07-29T04:40:51.323Z,19.32
2022-07-29T04:43:53.052Z,19.37
2022-07-29T04:46:54.838Z,19.18
2022-07-29T04:49:57.280Z,19.20
2022-07-29T04:52:59.228Z,19.40
2022-07-29T04:56:00.892Z,19.47
2022-07-29T04:59:02.663Z,19.46
2022-07-29T05:02:04.307Z,19.45
2022-07-29T05:05:06.716Z,19.48
2022-07-29T05:08:08.373Z,19.53
2022-07-29T05:11:12.508Z,19.46
2022-07-29T05:14:15.042Z,19.33
2022-07-29T05:17:17.637Z,19.41
2022-07-29T05:20:19.784Z,19.60
2022-07-29T05:23:21.442Z,19.59
2022-07-29T05:26:23.213Z,19.71
2022-07-29T05:29:43.230Z,19.77
2022-07-29T05:32:47.223Z,19.91
2022-07-29T05:35:49.017Z,19.99
2022-07-29T05:38:51.912Z,19.96
2022-07-29T05:41:53.637Z,19.81
2022-07-29T05:44:55.382Z,19.83
2022-07-29T05:47:57.083Z,19.82
2022-07-29T05:50:58.771Z,19.94
2022-07-29T05:54:00.642Z,19.96
2022-07-29T05:57:02.748Z,19.97
2022-07-29T06:00:05.297Z,20.11
2022-07-29T06:03:14.027Z,20.22
2022-07-29T06:06:16.040Z,20.39
2022-07-29T06:09:17.839Z,20.65
2022-07-29T06:12:20.794Z,20.78
2022-07-29T06:15:22.510Z,20.93
2022-07-29T06:18:27.055Z,21.05
2022-07-29T06:21:28.924Z,21.16
2022-07-29T06:24:30.681Z,21.29
2022-07-29T06:27:32.412Z,21.36
2022-07-29T06:30:34.239Z,21.40
2022-07-29T06:33:35.936Z,21.47
2022-07-29T06:36:38.319Z,21.47
2022-07-29T06:39:41.515Z,21.58
2022-07-29T06:42:46.260Z,21.61
2022-07-29T06:45:48.013Z,21.66
2022-07-29T06:48:50.302Z,21.83
2022-07-29T06:51:52.481Z,21.91
2022-07-29T06:54:56.005Z,22.05
2022-07-29T06:57:57.713Z,22.04
2022-07-29T07:01:02.613Z,21.98
2022-07-29T07:04:04.491Z,22.08
2022-07-29T07:07:06.225Z,22.30
2022-07-29T07:10:08.355Z,22.25
2022-07-29T07:13:11.253Z,22.35
2022-07-29T07:16:12.912Z,22.51
2022-07-29T07:19:14.581Z,22.61
2022-07-29T07:22:16.235Z,22.55
2022-07-29T07:25:20.619Z,22.58
2022-07-29T07:28:24.971Z,22.67
2022-07-29T07:31:27.132Z,22.80
2022-07-29T07:34:29.717Z,23.06
2022-07-29T07:37:32.092Z,22.94
2022-07-29T07:40:33.804Z,23.22
2022-07-29T07:43:35.444Z,23.25
2022-07-29T07:46:37.050Z,23.22
2022-07-29T07:49:40.603Z,23.07
2022-07-29T07:52:54.706Z,23.50
2022-07-29T07:56:12.835Z,23.87
2022-07-29T07:59:14.798Z,23.86
2022-07-29T08:02:16.661Z,23.67
2022-07-29T08:05:19.458Z,23.11
2022-07-29T08:08:21.990Z,23.36
2022-07-29T08:11:23.687Z,23.58
2022-07-29T08:14:25.990Z,23.81
2022-07-29T08:17:27.816Z,23.69
2022-07-29T08:20:30.078Z,24.16
2022-07-29T08:23:45.953Z,23.85
2022-07-29T08:26:49.156Z,23.84
2022-07-29T08:29:51.007Z,23.98
2022-07-29T08:32:55.050Z,23.85
2022-07-29T08:35:57.445Z,23.98
2022-07-29T08:38:59.351Z,24.20
2022-07-29T08:42:01.296Z,24.28
2022-07-29T08:45:04.689Z,24.14
2022-07-29T08:48:08.874Z,23.96
2022-07-29T08:51:21.807Z,24.07
2022-07-29T08:54:24.459Z,23.85
2022-07-29T08:57:27.469Z,24.04
2022-07-29T09:00:30.674Z,24.34
2022-07-29T09:03:36.110Z,24.29
2022-07-29T09:06:42.840Z,24.14
2022-07-29T09:09:45.289Z,24.51
2022-07-29T09:12:47.489Z,24.72
2022-07-29T09:15:49.877Z,24.57
2022-07-29T09:18:51.583Z,24.72
2022-07-29T09:22:00.339Z,24.83
2022-07-29T09:25:02.833Z,25.04
2022-07-29T09:28:17.384Z,24.88
2022-07-29T09:31:27.439Z,24.66
2022-07-29T09:34:32.418Z,24.92
2022-07-29T09:37:34.214Z,25.58
2022-07-29T09:40:36.175Z,26.39
2022-07-29T09:43:37.854Z,26.84
2022-07-29T09:46:39.613Z,26.50
2022-07-29T09:50:01.143Z,27.22
2022-07-29T09:53:02.938Z,27.43
2022-07-29T09:56:05.915Z,27.84
2022-07-29T09:59:08.739Z,28.06
2022-07-29T10:02:17.732Z,27.88
2022-07-29T10:05:25.816Z,28.51
2022-07-29T10:08:27.991Z,28.13
2022-07-29T10:11:48.417Z,28.10
2022-07-29T10:14:51.713Z,28.25
2022-07-29T10:17:54.928Z,28.07
2022-07-29T10:20:58.011Z,28.39
2022-07-29T10:24:01.340Z,28.62
2022-07-29T10:27:05.096Z,28.72
2022-07-29T10:30:07.691Z,29.01
2022-07-29T10:33:28.005Z,28.64
2022-07-29T10:36:32.793Z,28.29
2022-07-29T10:39:49.710Z,27.59
2022-07-29T10:42:54.585Z,28.29
2022-07-29T10:45:58.081Z,28.68
2022-07-29T10:49:31.035Z,28.70
2022-07-29T10:52:51.559Z,29.09
2022-07-29T10:55:53.698Z,28.68
2022-07-29T10:59:36.217Z,28.97
2022-07-29T11:02:43.540Z,29.41
2022-07-29T11:05:59.392Z,29.99
2022-07-29T11:09:25.895Z,29.49
2022-07-29T11:12:36.948Z,29.02
2022-07-29T11:15:58.454Z,28.75
2022-07-29T11:19:13.129Z,28.18
2022-07-29T11:22:33.774Z,28.80
2022-07-29T11:25:50.251Z,28.88
2022-07-29T11:28:59.089Z,28.38
2022-07-29T11:32:18.313Z,28.09
2022-07-29T11:35:37.287Z,27.95
2022-07-29T11:38:41.642Z,27.70
2022-07-29T11:41:43.414Z,27.41
2022-07-29T11:45:08.892Z,27.58
2022-07-29T11:51:52.338Z,27.20
2022-07-29T11:55:00.740Z,27.21
2022-07-29T11:58:11.462Z,27.34
2022-07-29T12:01:18.519Z,27.35
2022-07-29T12:04:20.254Z,26.84
2022-07-29T12:07:03.897Z,27.47
2022-07-29T12:07:35.182Z,27.03
2022-07-29T12:10:38.554Z,27.12
2022-07-29T12:13:40.957Z,26.92
2022-07-29T12:16:42.780Z,26.93
2022-07-29T12:19:46.212Z,27.09
2022-07-29T12:22:49.503Z,26.84
2022-07-29T12:40:24.020Z,26.76
2022-07-29T12:43:26.459Z,26.93
2022-07-29T12:46:28.550Z,26.86
2022-07-29T12:49:30.843Z,26.71
2022-07-29T12:52:40.018Z,26.83
2022-07-29T12:55:52.349Z,27.02
2022-07-29T12:58:57.001Z,27.02
2022-07-29T13:02:01.265Z,27.16
2022-07-29T13:05:05.081Z,27.20
2022-07-29T13:08:20.242Z,27.03
2022-07-29T13:11:45.284Z,27.16
2022-07-29T13:14:50.080Z,27.12
2022-07-29T13:17:51.774Z,27.20
2022-07-29T13:20:54.057Z,27.35
2022-07-29T13:23:55.879Z,27.27
2022-07-29T13:26:57.584Z,27.22
2022-07-29T13:30:01.734Z,27.15
2022-07-29T13:33:03.615Z,26.96
2022-07-29T13:36:05.469Z,26.64
2022-07-29T13:39:07.166Z,26.94
2022-07-29T13:42:11.010Z,26.84
2022-07-29T13:45:13.114Z,26.86
2022-07-29T13:48:14.979Z,26.76
2022-07-29T13:51:16.597Z,26.93
2022-07-29T13:54:18.576Z,26.95
2022-07-29T13:57:20.428Z,26.67
2022-07-29T14:00:22.254Z,26.71
2022-07-29T14:03:24.062Z,26.70
2022-07-29T14:06:25.756Z,26.88
2022-07-29T14:09:27.418Z,26.63
2022-07-29T14:12:29.151Z,26.90
2022-07-29T14:15:30.921Z,27.02
2022-07-29T14:18:32.720Z,27.28
2022-07-29T14:21:35.563Z,27.23
2022-07-29T14:24:39.076Z,27.42
2022-07-29T14:27:41.482Z,26.96
2022-07-29T14:30:44.221Z,27.16
2022-07-29T14:33:49.242Z,27.57
2022-07-29T14:36:51.119Z,27.15
2022-07-29T14:39:52.810Z,26.96
2022-07-29T14:42:54.573Z,27.03
2022-07-29T14:46:01.297Z,27.06
2022-07-29T14:49:06.616Z,27.02
2022-07-29T14:52:11.109Z,26.87
2022-07-29T14:55:16.565Z,27.42
2022-07-29T14:58:23.303Z,27.27
2022-07-29T15:01:25.897Z,27.13
2022-07-29T15:04:27.687Z,27.32
2022-07-29T15:07:29.475Z,27.46
2022-07-29T15:10:31.250Z,27.60
2022-07-29T15:13:33.818Z,27.53
2022-07-29T15:16:41.991Z,27.52
2022-07-29T15:19:45.790Z,27.19
2022-07-29T15:22:47.529Z,27.10
2022-07-29T15:25:49.285Z,27.27
2022-07-29T15:28:50.991Z,26.92
2022-07-29T15:31:53.316Z,27.30
2022-07-29T15:34:55.047Z,27.50
2022-07-29T15:37:56.676Z,27.30
2022-07-29T15:40:58.418Z,26.92
2022-07-29T15:44:00.120Z,27.14
2022-07-29T15:47:04.982Z,27.34
2022-07-29T15:50:12.794Z,27.19
2022-07-29T15:53:14.600Z,27.14
2022-07-29T15:56:16.306Z,27.28
2022-07-29T15:59:22.378Z,26.75
2022-07-29T16:02:24.505Z,26.97
2022-07-29T16:05:26.379Z,27.19
2022-07-29T16:08:28.004Z,26.78
2022-07-29T16:11:29.720Z,26.90
2022-07-29T16:14:31.432Z,26.97
2022-07-29T16:17:33.093Z,27.03
2022-07-29T16:20:35.050Z,27.22
2022-07-29T16:23:36.941Z,27.38
2022-07-29T16:26:38.634Z,27.71
2022-07-29T16:29:40.308Z,27.22
2022-07-29T16:32:42.108Z,27.35
2022-07-29T16:35:43.739Z,27.52
2022-07-29T16:38:47.508Z,27.74
2022-07-29T16:41:49.409Z,27.78
2022-07-29T16:44:51.113Z,27.89
2022-07-29T16:48:00.240Z,28.05
2022-07-29T16:51:03.700Z,28.07
2022-07-29T16:54:07.505Z,27.86
2022-07-29T16:57:15.252Z,27.78
2022-07-29T17:00:17.507Z,27.75
2022-07-29T17:03:19.504Z,27.93
2022-07-29T17:06:21.241Z,27.76
2022-07-29T17:09:23.094Z,27.96
2022-07-29T17:12:25.024Z,27.42
2022-07-29T17:15:26.765Z,27.16
2022-07-29T17:18:28.503Z,27.13
2022-07-29T17:21:30.197Z,27.24
2022-07-29T17:24:31.844Z,26.75
2022-07-29T17:27:33.815Z,26.68
2022-07-29T17:30:35.449Z,26.35
2022-07-29T17:33:37.363Z,26.34
2022-07-29T17:36:39.060Z,26.18
2022-07-29T17:39:42.120Z,25.96
2022-07-29T17:42:43.780Z,25.89
2022-07-29T17:45:49.030Z,25.66
2022-07-29T17:48:52.692Z,25.63
2022-07-29T17:52:00.374Z,25.45
2022-07-29T17:55:02.644Z,25.38
2022-07-29T17:58:04.347Z,25.44
2022-07-29T18:01:06.419Z,25.31
2022-07-29T18:04:09.262Z,25.42
2022-07-29T18:07:11.616Z,25.28
2022-07-29T18:10:13.290Z,25.10
2022-07-29T18:13:16.410Z,25.13
2022-07-29T18:16:18.493Z,25.11
2022-07-29T18:19:20.240Z,25.04
2022-07-29T18:22:22.131Z,25.04
2022-07-29T18:25:23.795Z,24.96
2022-07-29T18:28:25.471Z,25.00
2022-07-29T18:31:27.869Z,24.92
2022-07-29T18:34:29.589Z,24.92
2022-07-29T18:38:01.038Z,24.92
2022-07-29T18:40:52.949Z,24.88
2022-07-29T18:43:54.623Z,24.72
2022-07-29T18:46:56.547Z,24.64
2022-07-29T18:49:59.680Z,24.66
2022-07-29T18:53:03.390Z,24.59
2022-07-29T18:56:05.059Z,24.43
2022-07-29T18:59:07.007Z,24.20
2022-07-29T19:02:09.144Z,24.09
2022-07-29T19:05:11.216Z,23.97
2022-07-29T19:08:14.418Z,23.89
2022-07-29T19:11:16.104Z,23.86
2022-07-29T19:14:17.722Z,23.79
2022-07-29T19:17:19.426Z,23.66
2022-07-29T19:20:21.139Z,23.58
2022-07-29T19:23:23.973Z,23.47
2022-07-29T19:26:26.234Z,23.26
2022-07-29T19:29:28.487Z,23.24
2022-07-29T19:32:30.226Z,23.20
2022-07-29T19:35:31.934Z,23.12
2022-07-29T19:38:33.597Z,23.22
2022-07-29T19:41:35.492Z,23.09
2022-07-29T19:44:37.189Z,22.62
2022-07-29T19:47:38.969Z,22.86
2022-07-29T19:50:40.691Z,22.55
2022-07-29T19:53:45.268Z,22.47
2022-07-29T19:56:47.034Z,22.68
2022-07-29T19:59:48.874Z,22.76
2022-07-29T20:02:52.289Z,22.58
2022-07-29T20:05:54.127Z,22.92
2022-07-29T20:08:58.717Z,22.72
2022-07-29T20:12:00.998Z,22.56
2022-07-29T20:15:03.227Z,22.49
2022-07-29T20:18:05.195Z,22.34
2022-07-29T20:21:06.963Z,22.43
2022-07-29T20:24:10.391Z,22.57
2022-07-29T20:27:13.354Z,22.58
2022-07-29T20:30:15.603Z,22.55
2022-07-29T20:33:19.529Z,22.69
2022-07-29T20:36:21.295Z,22.63
2022-07-29T20:39:22.954Z,22.85
2022-07-29T20:42:24.623Z,22.67
2022-07-29T20:45:26.831Z,22.94
2022-07-29T20:48:28.464Z,22.86
2022-07-29T20:51:30.120Z,23.01
2022-07-29T20:54:31.753Z,23.36
2022-07-29T20:57:38.672Z,23.11
2022-07-29T21:00:41.565Z,23.07
2022-07-29T21:03:43.168Z,23.03
2022-07-29T21:06:44.751Z,23.50
2022-07-29T21:09:46.533Z,23.66
2022-07-29T21:12:48.696Z,23.84
2022-07-29T21:15:52.326Z,23.87
2022-07-29T21:18:57.257Z,23.86
2022-07-29T21:21:58.913Z,23.87
2022-07-29T21:25:01.017Z,23.86
2022-07-29T21:28:21.065Z,23.76
2022-07-29T21:31:22.686Z,23.75
2022-07-29T21:34:24.621Z,23.70
2022-07-29T21:37:26.316Z,23.84
2022-07-29T21:40:28.167Z,23.71
2022-07-29T21:43:30.365Z,23.57
2022-07-29T21:46:32.164Z,23.56
2022-07-29T21:49:33.860Z,23.39
2022-07-29T21:52:35.753Z,23.38
2022-07-29T21:55:39.425Z,23.46
2022-07-29T21:58:41.269Z,23.31
2022-07-29T22:01:42.947Z,23.08
2022-07-29T22:04:44.751Z,23.02
2022-07-29T22:07:56.521Z,23.06
2022-07-29T22:10:58.586Z,23.00
2022-07-29T22:14:00.241Z,22.91
2022-07-29T22:17:02.344Z,22.75
2022-07-29T22:20:05.316Z,22.76
2022-07-29T22:23:07.023Z,22.76
2022-07-29T22:26:10.494Z,22.62
2022-07-29T22:29:12.181Z,22.67
2022-07-29T22:32:13.824Z,22.55
2022-07-29T22:35:16.571Z,22.52
2022-07-29T22:38:18.482Z,22.49
2022-07-29T22:41:20.081Z,22.27
2022-07-29T22:44:22.094Z,22.43
2022-07-29T22:47:46.679Z,22.37
2022-07-29T22:50:45.899Z,22.38
2022-07-29T22:53:47.575Z,22.28
2022-07-29T22:56:49.268Z,22.25
2022-07-29T22:59:50.897Z,22.19
2022-07-29T23:02:52.521Z,21.99
2022-07-29T23:05:54.149Z,21.72
2022-07-29T23:08:55.866Z,21.61
2022-07-29T23:11:57.548Z,21.59
2022-07-29T23:14:59.338Z,21.50
2022-07-29T23:18:00.998Z,21.34
2022-07-29T23:21:02.706Z,21.12
2022-07-29T23:24:04.542Z,21.11
2022-07-29T23:27:06.240Z,20.98
2022-07-29T23:30:08.508Z,20.90
2022-07-29T23:33:10.204Z,20.91
2022-07-29T23:36:11.918Z,20.80
2022-07-29T23:39:13.798Z,20.74
2022-07-29T23:42:15.469Z,20.70
2022-07-29T23:45:17.123Z,20.63
2022-07-29T23:48:18.727Z,20.55
2022-07-29T23:51:20.990Z,20.42
2022-07-29T23:54:22.880Z,20.40
2022-07-29T23:57:26.423Z,20.46
